sensor_id;sensor_type;location;lat;lon;timestamp;P1;durP1;ratioP1;P2;durP2;ratioP2
35644;SDS011;21764;52.042;6.830;2024-01-06T00:01:56;34.30;;;18.30;;
35644;SDS011;21764;52.042;6.830;2024-01-06T00:06:58;34.15;;;18.88;;
35644;SDS011;21764;52.042;6.830;2024-01-06T00:11:59;37.63;;;19.70;;
35644;SDS011;21764;52.042;6.830;2024-01-06T00:17:04;37.25;;;19.80;;
35644;SDS011;21764;52.042;6.830;2024-01-06T00:22:05;37.33;;;20.70;;
35644;SDS011;21764;52.042;6.830;2024-01-06T00:27:06;37.97;;;20.90;;
35644;SDS011;21764;52.042;6.830;2024-01-06T00:32:08;40.78;;;21.55;;
35644;SDS011;21764;52.042;6.830;2024-01-06T00:37:12;43.97;;;23.48;;
35644;SDS011;21764;52.042;6.830;2024-01-06T00:42:13;45.33;;;25.48;;
35644;SDS011;21764;52.042;6.830;2024-01-06T00:47:14;53.25;;;26.67;;
35644;SDS011;21764;52.042;6.830;2024-01-06T00:52:18;50.72;;;27.55;;
35644;SDS011;21764;52.042;6.830;2024-01-06T00:57:19;50.35;;;27.90;;
35644;SDS011;21764;52.042;6.830;2024-01-06T01:07:27;48.47;;;26.98;;
35644;SDS011;21764;52.042;6.830;2024-01-06T01:12:28;50.65;;;28.70;;
35644;SDS011;21764;52.042;6.830;2024-01-06T01:17:29;63.50;;;31.00;;
35644;SDS011;21764;52.042;6.830;2024-01-06T01:22:40;50.00;;;27.85;;
35644;SDS011;21764;52.042;6.830;2024-01-06T01:27:41;47.17;;;27.95;;
35644;SDS011;21764;52.042;6.830;2024-01-06T01:32:42;45.67;;;26.58;;
35644;SDS011;21764;52.042;6.830;2024-01-06T01:37:46;42.63;;;24.85;;
35644;SDS011;21764;52.042;6.830;2024-01-06T01:42:47;40.95;;;23.55;;
35644;SDS011;21764;52.042;6.830;2024-01-06T01:47:48;41.60;;;21.35;;
35644;SDS011;21764;52.042;6.830;2024-01-06T01:52:50;62.88;;;25.50;;
35644;SDS011;21764;52.042;6.830;2024-01-06T01:58:00;36.17;;;18.60;;
35644;SDS011;21764;52.042;6.830;2024-01-06T02:03:02;35.97;;;18.80;;
35644;SDS011;21764;52.042;6.830;2024-01-06T02:08:04;26.67;;;15.18;;
35644;SDS011;21764;52.042;6.830;2024-01-06T02:13:09;39.42;;;20.17;;
35644;SDS011;21764;52.042;6.830;2024-01-06T02:18:10;31.73;;;17.30;;
35644;SDS011;21764;52.042;6.830;2024-01-06T02:23:11;34.78;;;17.17;;
35644;SDS011;21764;52.042;6.830;2024-01-06T02:28:12;36.03;;;17.73;;
35644;SDS011;21764;52.042;6.830;2024-01-06T02:33:13;35.75;;;18.73;;
35644;SDS011;21764;52.042;6.830;2024-01-06T02:38:14;32.72;;;18.67;;
35644;SDS011;21764;52.042;6.830;2024-01-06T02:43:15;36.58;;;19.67;;
35644;SDS011;21764;52.042;6.830;2024-01-06T02:48:17;35.53;;;19.15;;
35644;SDS011;21764;52.042;6.830;2024-01-06T02:53:18;36.05;;;20.83;;
35644;SDS011;21764;52.042;6.830;2024-01-06T02:58:19;35.25;;;19.45;;
35644;SDS011;21764;52.042;6.830;2024-01-06T03:03:20;32.47;;;18.67;;
35644;SDS011;21764;52.042;6.830;2024-01-06T03:08:21;31.52;;;17.02;;
35644;SDS011;21764;52.042;6.830;2024-01-06T03:13:23;31.38;;;17.30;;
35644;SDS011;21764;52.042;6.830;2024-01-06T03:18:24;30.15;;;15.82;;
35644;SDS011;21764;52.042;6.830;2024-01-06T03:23:25;28.17;;;15.70;;
35644;SDS011;21764;52.042;6.830;2024-01-06T03:28:26;36.95;;;18.90;;
35644;SDS011;21764;52.042;6.830;2024-01-06T03:33:27;40.17;;;17.55;;
35644;SDS011;21764;52.042;6.830;2024-01-06T03:38:29;29.90;;;16.33;;
35644;SDS011;21764;52.042;6.830;2024-01-06T03:43:30;32.75;;;17.40;;
35644;SDS011;21764;52.042;6.830;2024-01-06T03:48:31;33.75;;;17.27;;
35644;SDS011;21764;52.042;6.830;2024-01-06T03:53:32;33.53;;;16.95;;
35644;SDS011;21764;52.042;6.830;2024-01-06T03:58:36;36.28;;;18.75;;
35644;SDS011;21764;52.042;6.830;2024-01-06T04:03:38;31.80;;;16.77;;
35644;SDS011;21764;52.042;6.830;2024-01-06T04:08:42;34.80;;;17.45;;
35644;SDS011;21764;52.042;6.830;2024-01-06T04:13:43;35.15;;;18.60;;
35644;SDS011;21764;52.042;6.830;2024-01-06T04:18:44;39.13;;;18.85;;
35644;SDS011;21764;52.042;6.830;2024-01-06T04:23:45;47.70;;;20.27;;
35644;SDS011;21764;52.042;6.830;2024-01-06T04:28:46;38.55;;;19.83;;
35644;SDS011;21764;52.042;6.830;2024-01-06T04:33:47;48.45;;;21.40;;
35644;SDS011;21764;52.042;6.830;2024-01-06T04:38:48;43.55;;;20.20;;
35644;SDS011;21764;52.042;6.830;2024-01-06T04:43:50;44.30;;;20.90;;
35644;SDS011;21764;52.042;6.830;2024-01-06T04:48:51;48.72;;;22.85;;
35644;SDS011;21764;52.042;6.830;2024-01-06T04:53:52;46.38;;;23.27;;
35644;SDS011;21764;52.042;6.830;2024-01-06T04:58:53;47.35;;;22.25;;
35644;SDS011;21764;52.042;6.830;2024-01-06T05:03:54;47.03;;;22.13;;
35644;SDS011;21764;52.042;6.830;2024-01-06T05:08:55;43.00;;;21.27;;
35644;SDS011;21764;52.042;6.830;2024-01-06T05:13:57;51.67;;;22.83;;
35644;SDS011;21764;52.042;6.830;2024-01-06T05:18:58;56.70;;;25.65;;
35644;SDS011;21764;52.042;6.830;2024-01-06T05:23:59;57.17;;;26.50;;
35644;SDS011;21764;52.042;6.830;2024-01-06T05:29:00;62.72;;;24.70;;
35644;SDS011;21764;52.042;6.830;2024-01-06T05:34:01;47.95;;;23.83;;
35644;SDS011;21764;52.042;6.830;2024-01-06T05:39:02;46.85;;;24.88;;
35644;SDS011;21764;52.042;6.830;2024-01-06T05:44:04;44.95;;;23.85;;
35644;SDS011;21764;52.042;6.830;2024-01-06T05:49:05;40.58;;;22.27;;
35644;SDS011;21764;52.042;6.830;2024-01-06T05:54:06;40.92;;;21.73;;
35644;SDS011;21764;52.042;6.830;2024-01-06T05:59:08;44.45;;;22.20;;
35644;SDS011;21764;52.042;6.830;2024-01-06T06:04:09;39.17;;;22.00;;
35644;SDS011;21764;52.042;6.830;2024-01-06T06:09:11;46.10;;;22.50;;
35644;SDS011;21764;52.042;6.830;2024-01-06T06:14:12;43.70;;;23.05;;
35644;SDS011;21764;52.042;6.830;2024-01-06T06:19:13;44.78;;;23.67;;
35644;SDS011;21764;52.042;6.830;2024-01-06T06:24:15;50.67;;;24.38;;
35644;SDS011;21764;52.042;6.830;2024-01-06T06:29:16;53.15;;;25.45;;
35644;SDS011;21764;52.042;6.830;2024-01-06T06:34:17;49.90;;;24.92;;
35644;SDS011;21764;52.042;6.830;2024-01-06T06:39:18;54.80;;;25.80;;
35644;SDS011;21764;52.042;6.830;2024-01-06T06:44:20;52.50;;;26.60;;
35644;SDS011;21764;52.042;6.830;2024-01-06T06:49:21;54.80;;;27.98;;
35644;SDS011;21764;52.042;6.830;2024-01-06T06:54:22;56.97;;;28.50;;
35644;SDS011;21764;52.042;6.830;2024-01-06T06:59:23;50.30;;;26.80;;
35644;SDS011;21764;52.042;6.830;2024-01-06T07:04:24;52.60;;;28.05;;
35644;SDS011;21764;52.042;6.830;2024-01-06T07:09:27;52.05;;;27.48;;
35644;SDS011;21764;52.042;6.830;2024-01-06T07:14:28;62.65;;;31.08;;
35644;SDS011;21764;52.042;6.830;2024-01-06T07:19:29;64.75;;;32.92;;
35644;SDS011;21764;52.042;6.830;2024-01-06T07:24:30;62.58;;;32.40;;
35644;SDS011;21764;52.042;6.830;2024-01-06T07:29:31;53.83;;;29.77;;
35644;SDS011;21764;52.042;6.830;2024-01-06T07:34:32;64.20;;;32.58;;
35644;SDS011;21764;52.042;6.830;2024-01-06T07:39:34;74.22;;;36.08;;
35644;SDS011;21764;52.042;6.830;2024-01-06T07:44:35;67.57;;;34.05;;
35644;SDS011;21764;52.042;6.830;2024-01-06T07:49:36;73.30;;;33.83;;
35644;SDS011;21764;52.042;6.830;2024-01-06T07:54:37;66.03;;;32.83;;
35644;SDS011;21764;52.042;6.830;2024-01-06T07:59:39;70.72;;;35.15;;
35644;SDS011;21764;52.042;6.830;2024-01-06T08:04:40;63.55;;;32.70;;
35644;SDS011;21764;52.042;6.830;2024-01-06T08:09:41;65.75;;;33.60;;
35644;SDS011;21764;52.042;6.830;2024-01-06T08:14:42;70.75;;;34.70;;
35644;SDS011;21764;52.042;6.830;2024-01-06T08:19:43;70.97;;;32.70;;
35644;SDS011;21764;52.042;6.830;2024-01-06T08:24:47;71.65;;;39.00;;
35644;SDS011;21764;52.042;6.830;2024-01-06T08:29:48;74.50;;;36.70;;
35644;SDS011;21764;52.042;6.830;2024-01-06T08:34:49;67.30;;;31.77;;
35644;SDS011;21764;52.042;6.830;2024-01-06T08:39:50;54.65;;;27.83;;
35644;SDS011;21764;52.042;6.830;2024-01-06T08:44:51;45.78;;;23.85;;
35644;SDS011;21764;52.042;6.830;2024-01-06T08:49:52;43.30;;;22.10;;
35644;SDS011;21764;52.042;6.830;2024-01-06T08:54:53;41.08;;;21.92;;
35644;SDS011;21764;52.042;6.830;2024-01-06T08:59:54;42.25;;;23.33;;
35644;SDS011;21764;52.042;6.830;2024-01-06T09:04:55;48.85;;;25.60;;
35644;SDS011;21764;52.042;6.830;2024-01-06T09:09:57;53.15;;;26.77;;
35644;SDS011;21764;52.042;6.830;2024-01-06T09:14:59;49.55;;;25.73;;
35644;SDS011;21764;52.042;6.830;2024-01-06T09:20:03;44.65;;;24.15;;
35644;SDS011;21764;52.042;6.830;2024-01-06T09:25:04;43.55;;;23.45;;
35644;SDS011;21764;52.042;6.830;2024-01-06T09:30:06;46.70;;;25.80;;
35644;SDS011;21764;52.042;6.830;2024-01-06T09:35:08;43.95;;;23.77;;
35644;SDS011;21764;52.042;6.830;2024-01-06T09:40:11;46.45;;;23.10;;
35644;SDS011;21764;52.042;6.830;2024-01-06T09:45:15;44.20;;;23.73;;
35644;SDS011;21764;52.042;6.830;2024-01-06T09:50:20;45.70;;;25.30;;
35644;SDS011;21764;52.042;6.830;2024-01-06T10:00:22;44.50;;;22.67;;
35644;SDS011;21764;52.042;6.830;2024-01-06T10:05:23;46.50;;;23.08;;
35644;SDS011;21764;52.042;6.830;2024-01-06T10:10:24;46.80;;;23.98;;
35644;SDS011;21764;52.042;6.830;2024-01-06T10:15:25;45.90;;;24.77;;
35644;SDS011;21764;52.042;6.830;2024-01-06T10:20:26;49.83;;;25.23;;
35644;SDS011;21764;52.042;6.830;2024-01-06T10:25:28;55.85;;;29.33;;
35644;SDS011;21764;52.042;6.830;2024-01-06T10:30:29;54.75;;;27.17;;
35644;SDS011;21764;52.042;6.830;2024-01-06T10:35:30;51.20;;;28.08;;
35644;SDS011;21764;52.042;6.830;2024-01-06T10:40:31;47.50;;;24.35;;
35644;SDS011;21764;52.042;6.830;2024-01-06T10:45:32;50.97;;;25.60;;
35644;SDS011;21764;52.042;6.830;2024-01-06T10:50:33;49.10;;;26.38;;
35644;SDS011;21764;52.042;6.830;2024-01-06T10:55:35;54.47;;;27.90;;
35644;SDS011;21764;52.042;6.830;2024-01-06T11:00:36;55.30;;;26.00;;
35644;SDS011;21764;52.042;6.830;2024-01-06T11:05:37;58.53;;;27.02;;
35644;SDS011;21764;52.042;6.830;2024-01-06T11:10:39;55.63;;;26.83;;
35644;SDS011;21764;52.042;6.830;2024-01-06T11:15:47;43.85;;;24.67;;
35644;SDS011;21764;52.042;6.830;2024-01-06T11:26:09;38.45;;;21.05;;
35644;SDS011;21764;52.042;6.830;2024-01-06T11:31:10;37.88;;;21.35;;
35644;SDS011;21764;52.042;6.830;2024-01-06T11:36:11;39.13;;;19.92;;
35644;SDS011;21764;52.042;6.830;2024-01-06T11:41:44;39.67;;;20.48;;
35644;SDS011;21764;52.042;6.830;2024-01-06T11:46:33;193.98;;;66.80;;
35644;SDS011;21764;52.042;6.830;2024-01-06T11:51:35;65.10;;;35.55;;
35644;SDS011;21764;52.042;6.830;2024-01-06T11:56:36;48.83;;;25.95;;
35644;SDS011;21764;52.042;6.830;2024-01-06T12:01:37;46.50;;;24.52;;
35644;SDS011;21764;52.042;6.830;2024-01-06T12:06:38;48.88;;;26.60;;
35644;SDS011;21764;52.042;6.830;2024-01-06T12:11:40;81.05;;;38.33;;
35644;SDS011;21764;52.042;6.830;2024-01-06T12:16:41;45.65;;;26.92;;
35644;SDS011;21764;52.042;6.830;2024-01-06T12:21:43;42.85;;;25.25;;
35644;SDS011;21764;52.042;6.830;2024-01-06T12:26:45;87.05;;;45.03;;
35644;SDS011;21764;52.042;6.830;2024-01-06T12:31:46;45.90;;;25.42;;
35644;SDS011;21764;52.042;6.830;2024-01-06T12:36:47;44.50;;;25.10;;
35644;SDS011;21764;52.042;6.830;2024-01-06T12:41:54;50.33;;;30.48;;
35644;SDS011;21764;52.042;6.830;2024-01-06T12:46:55;38.67;;;22.65;;
35644;SDS011;21764;52.042;6.830;2024-01-06T12:51:56;34.70;;;20.80;;
35644;SDS011;21764;52.042;6.830;2024-01-06T12:56:57;34.17;;;20.38;;
35644;SDS011;21764;52.042;6.830;2024-01-06T13:01:59;32.90;;;20.52;;
35644;SDS011;21764;52.042;6.830;2024-01-06T13:07:00;34.40;;;19.92;;
35644;SDS011;21764;52.042;6.830;2024-01-06T13:12:01;37.63;;;22.75;;
35644;SDS011;21764;52.042;6.830;2024-01-06T13:17:03;38.47;;;22.88;;
35644;SDS011;21764;52.042;6.830;2024-01-06T13:22:05;35.88;;;22.70;;
35644;SDS011;21764;52.042;6.830;2024-01-06T13:27:06;43.72;;;26.05;;
35644;SDS011;21764;52.042;6.830;2024-01-06T13:32:08;41.25;;;24.92;;
35644;SDS011;21764;52.042;6.830;2024-01-06T13:37:11;39.88;;;24.98;;
35644;SDS011;21764;52.042;6.830;2024-01-06T13:42:12;37.50;;;23.90;;
35644;SDS011;21764;52.042;6.830;2024-01-06T13:47:13;36.55;;;22.02;;
35644;SDS011;21764;52.042;6.830;2024-01-06T13:52:14;32.58;;;21.33;;
35644;SDS011;21764;52.042;6.830;2024-01-06T13:57:15;34.22;;;22.35;;
35644;SDS011;21764;52.042;6.830;2024-01-06T14:02:16;34.67;;;23.48;;
35644;SDS011;21764;52.042;6.830;2024-01-06T14:07:17;38.65;;;24.63;;
35644;SDS011;21764;52.042;6.830;2024-01-06T14:12:19;39.40;;;25.48;;
35644;SDS011;21764;52.042;6.830;2024-01-06T14:17:20;43.88;;;25.75;;
35644;SDS011;21764;52.042;6.830;2024-01-06T14:22:21;42.05;;;26.23;;
35644;SDS011;21764;52.042;6.830;2024-01-06T14:27:22;42.47;;;27.45;;
35644;SDS011;21764;52.042;6.830;2024-01-06T14:32:23;41.90;;;27.33;;
35644;SDS011;21764;52.042;6.830;2024-01-06T14:37:26;45.25;;;27.38;;
35644;SDS011;21764;52.042;6.830;2024-01-06T14:42:27;46.70;;;28.52;;
35644;SDS011;21764;52.042;6.830;2024-01-06T14:47:32;44.70;;;26.40;;
35644;SDS011;21764;52.042;6.830;2024-01-06T14:52:33;48.72;;;29.92;;
35644;SDS011;21764;52.042;6.830;2024-01-06T14:57:35;44.78;;;28.08;;
35644;SDS011;21764;52.042;6.830;2024-01-06T15:02:36;49.53;;;29.45;;
35644;SDS011;21764;52.042;6.830;2024-01-06T15:07:38;50.42;;;30.50;;
35644;SDS011;21764;52.042;6.830;2024-01-06T15:12:40;56.75;;;31.95;;
35644;SDS011;21764;52.042;6.830;2024-01-06T15:17:41;51.67;;;30.00;;
35644;SDS011;21764;52.042;6.830;2024-01-06T15:22:42;59.55;;;35.20;;
35644;SDS011;21764;52.042;6.830;2024-01-06T15:27:43;65.50;;;37.00;;
35644;SDS011;21764;52.042;6.830;2024-01-06T15:32:44;53.15;;;31.48;;
35644;SDS011;21764;52.042;6.830;2024-01-06T15:37:45;52.80;;;30.55;;
35644;SDS011;21764;52.042;6.830;2024-01-06T15:42:47;53.58;;;31.08;;
35644;SDS011;21764;52.042;6.830;2024-01-06T15:47:48;66.63;;;36.28;;
35644;SDS011;21764;52.042;6.830;2024-01-06T15:52:49;54.13;;;30.80;;
35644;SDS011;21764;52.042;6.830;2024-01-06T15:57:50;47.30;;;29.50;;
35644;SDS011;21764;52.042;6.830;2024-01-06T16:02:51;42.15;;;26.20;;
35644;SDS011;21764;52.042;6.830;2024-01-06T16:07:52;56.00;;;34.70;;
35644;SDS011;21764;52.042;6.830;2024-01-06T16:12:54;58.38;;;29.92;;
35644;SDS011;21764;52.042;6.830;2024-01-06T16:17:57;53.55;;;30.15;;
35644;SDS011;21764;52.042;6.830;2024-01-06T16:22:58;54.70;;;30.80;;
35644;SDS011;21764;52.042;6.830;2024-01-06T16:27:59;58.25;;;31.73;;
35644;SDS011;21764;52.042;6.830;2024-01-06T16:33:00;61.85;;;34.58;;
35644;SDS011;21764;52.042;6.830;2024-01-06T16:38:02;62.38;;;34.08;;
35644;SDS011;21764;52.042;6.830;2024-01-06T16:43:03;64.05;;;35.42;;
35644;SDS011;21764;52.042;6.830;2024-01-06T16:48:04;76.22;;;35.97;;
35644;SDS011;21764;52.042;6.830;2024-01-06T16:53:06;69.78;;;37.45;;
35644;SDS011;21764;52.042;6.830;2024-01-06T16:58:07;73.35;;;38.72;;
35644;SDS011;21764;52.042;6.830;2024-01-06T17:03:08;69.43;;;36.53;;
35644;SDS011;21764;52.042;6.830;2024-01-06T17:08:09;71.82;;;38.08;;
35644;SDS011;21764;52.042;6.830;2024-01-06T17:13:10;76.40;;;38.30;;
35644;SDS011;21764;52.042;6.830;2024-01-06T17:18:11;70.88;;;36.70;;
35644;SDS011;21764;52.042;6.830;2024-01-06T17:23:13;71.78;;;38.03;;
35644;SDS011;21764;52.042;6.830;2024-01-06T17:28:15;67.47;;;35.13;;
35644;SDS011;21764;52.042;6.830;2024-01-06T17:33:16;69.97;;;35.95;;
35644;SDS011;21764;52.042;6.830;2024-01-06T17:38:17;69.15;;;35.30;;
35644;SDS011;21764;52.042;6.830;2024-01-06T17:43:18;90.38;;;41.13;;
35644;SDS011;21764;52.042;6.830;2024-01-06T17:48:20;83.70;;;38.60;;
35644;SDS011;21764;52.042;6.830;2024-01-06T17:53:21;72.25;;;38.10;;
35644;SDS011;21764;52.042;6.830;2024-01-06T17:58:23;85.22;;;42.58;;
35644;SDS011;21764;52.042;6.830;2024-01-06T18:03:24;81.55;;;39.67;;
35644;SDS011;21764;52.042;6.830;2024-01-06T18:08:25;88.35;;;42.22;;
35644;SDS011;21764;52.042;6.830;2024-01-06T18:13:26;84.50;;;41.10;;
35644;SDS011;21764;52.042;6.830;2024-01-06T18:18:28;84.90;;;42.20;;
35644;SDS011;21764;52.042;6.830;2024-01-06T18:23:29;77.90;;;40.47;;
35644;SDS011;21764;52.042;6.830;2024-01-06T18:28:30;83.60;;;38.67;;
35644;SDS011;21764;52.042;6.830;2024-01-06T18:33:32;89.32;;;45.30;;
35644;SDS011;21764;52.042;6.830;2024-01-06T18:38:33;92.10;;;45.78;;
35644;SDS011;21764;52.042;6.830;2024-01-06T18:43:34;81.00;;;40.05;;
35644;SDS011;21764;52.042;6.830;2024-01-06T18:48:35;78.43;;;38.90;;
35644;SDS011;21764;52.042;6.830;2024-01-06T18:53:36;69.57;;;36.15;;
35644;SDS011;21764;52.042;6.830;2024-01-06T18:58:38;57.50;;;30.33;;
35644;SDS011;21764;52.042;6.830;2024-01-06T19:03:39;58.15;;;31.58;;
35644;SDS011;21764;52.042;6.830;2024-01-06T19:08:43;46.63;;;27.10;;
35644;SDS011;21764;52.042;6.830;2024-01-06T19:13:44;51.97;;;29.50;;
35644;SDS011;21764;52.042;6.830;2024-01-06T19:18:45;45.40;;;26.63;;
35644;SDS011;21764;52.042;6.830;2024-01-06T19:23:46;52.90;;;32.17;;
35644;SDS011;21764;52.042;6.830;2024-01-06T19:28:47;54.90;;;30.08;;
35644;SDS011;21764;52.042;6.830;2024-01-06T19:33:48;48.67;;;27.30;;
35644;SDS011;21764;52.042;6.830;2024-01-06T19:38:52;49.17;;;28.40;;
35644;SDS011;21764;52.042;6.830;2024-01-06T19:43:53;51.90;;;29.10;;
35644;SDS011;21764;52.042;6.830;2024-01-06T19:48:55;55.58;;;30.35;;
35644;SDS011;21764;52.042;6.830;2024-01-06T19:53:56;61.25;;;34.42;;
35644;SDS011;21764;52.042;6.830;2024-01-06T19:58:57;55.30;;;30.35;;
35644;SDS011;21764;52.042;6.830;2024-01-06T20:03:58;62.40;;;34.35;;
35644;SDS011;21764;52.042;6.830;2024-01-06T20:09:00;67.15;;;33.67;;
35644;SDS011;21764;52.042;6.830;2024-01-06T20:14:06;67.93;;;36.63;;
35644;SDS011;21764;52.042;6.830;2024-01-06T20:19:07;69.57;;;35.35;;
35644;SDS011;21764;52.042;6.830;2024-01-06T20:24:08;75.78;;;38.88;;
35644;SDS011;21764;52.042;6.830;2024-01-06T20:29:09;71.70;;;36.63;;
35644;SDS011;21764;52.042;6.830;2024-01-06T20:34:10;77.18;;;38.95;;
35644;SDS011;21764;52.042;6.830;2024-01-06T20:39:11;83.75;;;41.17;;
35644;SDS011;21764;52.042;6.830;2024-01-06T20:44:12;83.55;;;38.97;;
35644;SDS011;21764;52.042;6.830;2024-01-06T20:49:14;87.50;;;42.42;;
35644;SDS011;21764;52.042;6.830;2024-01-06T20:54:15;103.32;;;49.47;;
35644;SDS011;21764;52.042;6.830;2024-01-06T20:59:16;103.45;;;47.08;;
35644;SDS011;21764;52.042;6.830;2024-01-06T21:04:17;87.38;;;39.30;;
35644;SDS011;21764;52.042;6.830;2024-01-06T21:09:18;96.00;;;41.70;;
35644;SDS011;21764;52.042;6.830;2024-01-06T21:14:21;95.63;;;40.95;;
35644;SDS011;21764;52.042;6.830;2024-01-06T21:19:22;96.32;;;43.13;;
35644;SDS011;21764;52.042;6.830;2024-01-06T21:24:24;95.63;;;42.08;;
35644;SDS011;21764;52.042;6.830;2024-01-06T21:29:25;89.45;;;40.40;;
35644;SDS011;21764;52.042;6.830;2024-01-06T21:34:26;93.35;;;44.67;;
35644;SDS011;21764;52.042;6.830;2024-01-06T21:39:28;88.57;;;41.22;;
35644;SDS011;21764;52.042;6.830;2024-01-06T21:44:29;66.15;;;29.58;;
35644;SDS011;21764;52.042;6.830;2024-01-06T21:49:30;66.70;;;31.25;;
35644;SDS011;21764;52.042;6.830;2024-01-06T21:54:32;68.22;;;27.77;;
35644;SDS011;21764;52.042;6.830;2024-01-06T21:59:33;85.78;;;37.13;;
35644;SDS011;21764;52.042;6.830;2024-01-06T22:04:34;75.93;;;35.72;;
35644;SDS011;21764;52.042;6.830;2024-01-06T22:09:35;74.90;;;34.20;;
35644;SDS011;21764;52.042;6.830;2024-01-06T22:14:36;70.65;;;31.00;;
35644;SDS011;21764;52.042;6.830;2024-01-06T22:19:37;80.25;;;36.22;;
35644;SDS011;21764;52.042;6.830;2024-01-06T22:24:39;65.80;;;30.65;;
35644;SDS011;21764;52.042;6.830;2024-01-06T22:29:42;62.03;;;30.30;;
35644;SDS011;21764;52.042;6.830;2024-01-06T22:34:44;69.88;;;32.92;;
35644;SDS011;21764;52.042;6.830;2024-01-06T22:39:45;67.60;;;31.45;;
35644;SDS011;21764;52.042;6.830;2024-01-06T22:44:46;74.32;;;31.40;;
35644;SDS011;21764;52.042;6.830;2024-01-06T22:49:47;63.08;;;31.02;;
35644;SDS011;21764;52.042;6.830;2024-01-06T22:54:49;56.17;;;28.55;;
35644;SDS011;21764;52.042;6.830;2024-01-06T22:59:50;55.70;;;29.75;;
35644;SDS011;21764;52.042;6.830;2024-01-06T23:04:54;51.55;;;26.23;;
35644;SDS011;21764;52.042;6.830;2024-01-06T23:09:58;49.50;;;25.20;;
35644;SDS011;21764;52.042;6.830;2024-01-06T23:14:59;55.90;;;28.05;;
35644;SDS011;21764;52.042;6.830;2024-01-06T23:20:00;48.50;;;25.20;;
35644;SDS011;21764;52.042;6.830;2024-01-06T23:25:01;50.22;;;25.15;;
35644;SDS011;21764;52.042;6.830;2024-01-06T23:30:02;52.90;;;26.48;;
35644;SDS011;21764;52.042;6.830;2024-01-06T23:35:04;55.25;;;28.42;;
35644;SDS011;21764;52.042;6.830;2024-01-06T23:40:06;53.08;;;26.70;;
35644;SDS011;21764;52.042;6.830;2024-01-06T23:45:07;55.80;;;27.73;;
35644;SDS011;21764;52.042;6.830;2024-01-06T23:50:08;48.63;;;26.05;;
35644;SDS011;21764;52.042;6.830;2024-01-06T23:55:09;52.35;;;28.40;;
